Time;durP1;ratioP1;P1;durP2;ratioP2;P2;SDS_P1;SDS_P2;PMS_P1;PMS_P2;Temp;Humidity;BMP_temperature;BMP_pressure;BME280_temperature;BME280_humidity;BME280_pressure;Samples;Min_cycle;Max_cycle;Signal;HPM_P1;HPM_P2
2021/06/30 00:02:53;;;;;;;1.02;0.80;;;24.80;65.60;;;;;;5245444;27;20438;-57
2021/06/30 00:05:41;;;;;;;1.73;1.10;;;24.80;65.60;;;;;;5243249;28;20991;-56
2021/06/30 00:08:29;;;;;;;1.65;0.98;;;24.80;65.60;;;;;;5243781;27;20437;-57
2021/06/30 00:11:17;;;;;;;2.20;1.00;;;24.80;65.60;;;;;;5232469;27;20482;-56
2021/06/30 00:14:06;;;;;;;2.50;1.10;;;24.80;65.60;;;;;;5280948;27;20521;-58
2021/06/30 00:16:54;;;;;;;1.02;0.93;;;24.80;65.60;;;;;;5208381;28;20424;-57
2021/06/30 00:19:41;;;;;;;1.80;0.90;;;24.80;65.60;;;;;;5229110;27;20438;-56
2021/06/30 00:22:29;;;;;;;2.58;0.88;;;24.80;65.60;;;;;;5207163;28;20901;-57
2021/06/30 00:25:20;;;;;;;2.15;1.13;;;24.80;65.50;;;;;;5205233;28;20518;-55
2021/06/30 00:28:09;;;;;;;3.35;0.93;;;24.80;65.50;;;;;;5206698;28;20509;-57
2021/06/30 00:30:58;;;;;;;2.60;0.90;;;24.80;65.50;;;;;;5211551;28;20493;-54
2021/06/30 00:33:47;;;;;;;1.70;1.10;;;24.80;65.50;;;;;;5230558;27;20508;-58
2021/06/30 00:36:43;;;;;;;1.02;0.73;;;24.70;65.50;;;;;;5241211;27;20507;-58
2021/06/30 00:39:33;;;;;;;1.75;0.98;;;24.80;65.50;;;;;;5253492;27;20463;-57
2021/06/30 00:42:22;;;;;;;3.95;1.00;;;24.70;65.50;;;;;;5263621;27;20447;-55
2021/06/30 00:45:10;;;;;;;3.22;1.02;;;24.70;65.40;;;;;;5226901;27;20418;-58
2021/06/30 00:47:59;;;;;;;5.00;1.20;;;24.80;65.40;;;;;;5203539;28;20443;-57
2021/06/30 00:50:47;;;;;;;3.92;0.90;;;24.80;65.40;;;;;;5207233;28;20998;-56
2021/06/30 00:53:36;;;;;;;3.97;0.88;;;24.70;65.40;;;;;;5227110;27;20491;-55
2021/06/30 00:56:26;;;;;;;0.93;0.70;;;24.70;65.30;;;;;;5200803;28;20916;-57
2021/06/30 00:59:15;;;;;;;2.60;1.02;;;24.70;65.30;;;;;;5223620;28;21083;-58
2021/06/30 01:02:03;;;;;;;1.60;0.80;;;24.70;65.30;;;;;;5272641;27;20523;-56
2021/06/30 01:04:52;;;;;;;1.63;1.08;;;24.70;65.30;;;;;;5213465;28;21309;-54
2021/06/30 01:07:40;;;;;;;2.50;0.90;;;24.70;65.30;;;;;;5205306;28;21012;-56
2021/06/30 01:10:28;;;;;;;1.30;0.90;;;24.70;65.40;;;;;;5224786;28;20451;-58
2021/06/30 01:13:15;;;;;;;2.00;0.70;;;24.70;65.30;;;;;;5228845;27;20437;-56
2021/06/30 01:16:04;;;;;;;1.80;0.90;;;24.70;65.40;;;;;;5284584;27;20789;-56
2021/06/30 01:18:51;;;;;;;1.23;1.00;;;24.70;65.30;;;;;;5208126;28;20454;-57
2021/06/30 01:21:39;;;;;;;2.28;0.77;;;24.70;65.30;;;;;;5227093;27;20425;-56
2021/06/30 01:24:27;;;;;;;2.60;0.85;;;24.70;65.40;;;;;;5217553;28;20536;-58
2021/06/30 01:27:18;;;;;;;1.38;0.80;;;24.70;65.40;;;;;;5288495;27;20799;-56
2021/06/30 01:30:03;;;;;;;3.70;1.00;;;24.70;65.40;;;;;;5209858;28;20415;-57
2021/06/30 01:32:52;;;;;;;3.25;1.20;;;24.70;65.60;;;;;;5243139;27;20486;-54
2021/06/30 01:35:40;;;;;;;2.47;1.05;;;24.70;65.40;;;;;;5221150;28;20494;-57
2021/06/30 01:38:26;;;;;;;1.00;0.90;;;24.70;65.40;;;;;;5250274;27;20428;-57
2021/06/30 01:41:15;;;;;;;2.83;0.90;;;24.70;65.40;;;;;;5210042;28;20535;-57
2021/06/30 01:44:03;;;;;;;4.57;0.82;;;24.70;65.40;;;;;;5247524;27;20495;-56
2021/06/30 01:46:52;;;;;;;4.55;1.13;;;24.70;65.40;;;;;;5244249;27;20513;-59
2021/06/30 01:49:41;;;;;;;1.52;0.90;;;24.70;65.40;;;;;;5247425;27;20513;-55
2021/06/30 01:52:30;;;;;;;3.13;1.05;;;24.70;65.40;;;;;;5224686;27;20527;-56
2021/06/30 01:55:17;;;;;;;1.17;0.90;;;24.70;65.40;;;;;;5209546;28;20507;-57
2021/06/30 01:58:05;;;;;;;5.15;1.00;;;24.60;65.30;;;;;;5249396;27;21057;-55
2021/06/30 02:00:55;;;;;;;1.80;1.10;;;24.70;65.40;;;;;;5226190;27;20454;-57
2021/06/30 02:03:42;;;;;;;1.23;1.00;;;24.70;65.40;;;;;;5262736;27;20843;-56
2021/06/30 02:06:36;;;;;;;2.25;1.40;;;24.70;65.40;;;;;;5241902;27;20500;-56
2021/06/30 02:09:24;;;;;;;1.77;0.95;;;24.70;65.40;;;;;;5259486;27;21897;-57
2021/06/30 02:12:12;;;;;;;1.00;0.90;;;24.60;65.30;;;;;;5245813;27;20435;-56
2021/06/30 02:15:00;;;;;;;2.05;0.90;;;24.70;65.30;;;;;;5251697;27;20512;-57
2021/06/30 02:17:48;;;;;;;6.32;2.25;;;24.70;65.40;;;;;;5220823;28;20487;-57
2021/06/30 02:20:37;;;;;;;4.55;0.85;;;24.60;65.90;;;;;;5220787;28;20477;-57
2021/06/30 02:23:25;;;;;;;1.17;0.93;;;24.60;65.30;;;;;;5237333;27;20427;-59
2021/06/30 02:26:13;;;;;;;1.70;1.23;;;24.60;65.30;;;;;;5225458;28;20917;-58
2021/06/30 02:29:01;;;;;;;1.77;1.10;;;24.60;65.20;;;;;;5255123;27;20502;-54
2021/06/30 02:31:48;;;;;;;2.17;1.10;;;24.70;65.40;;;;;;5206221;28;20508;-56
2021/06/30 02:34:36;;;;;;;1.25;1.15;;;24.60;65.30;;;;;;5242515;27;20533;-55
2021/06/30 02:37:24;;;;;;;1.67;1.17;;;24.60;65.20;;;;;;5246845;27;20420;-58
2021/06/30 02:40:14;;;;;;;2.22;1.00;;;24.60;65.30;;;;;;5250989;27;20984;-57
2021/06/30 02:43:03;;;;;;;1.63;1.00;;;24.60;65.20;;;;;;5229853;27;1211494;-57
2021/06/30 02:45:51;;;;;;;1.65;1.20;;;24.60;65.30;;;;;;5243336;27;20484;-57
2021/06/30 02:48:39;;;;;;;1.45;0.98;;;24.60;65.20;;;;;;5257907;27;20497;-56
2021/06/30 02:51:26;;;;;;;1.02;0.90;;;24.60;65.20;;;;;;5247028;27;20874;-56
2021/06/30 02:54:14;;;;;;;2.00;1.05;;;24.60;65.20;;;;;;5202836;28;20517;-55
2021/06/30 02:57:03;;;;;;;2.25;0.90;;;24.60;65.20;;;;;;5283781;27;20419;-54
2021/06/30 02:59:47;;;;;;;1.85;0.90;;;24.60;65.20;;;;;;5244153;27;20565;-56
2021/06/30 03:02:34;;;;;;;1.63;0.93;;;24.60;65.10;;;;;;5205215;28;20449;-54
2021/06/30 03:05:22;;;;;;;1.70;1.10;;;24.60;65.10;;;;;;5282740;27;20429;-56
2021/06/30 03:08:10;;;;;;;2.65;1.02;;;24.60;65.10;;;;;;5208059;28;21060;-56
2021/06/30 03:10:58;;;;;;;1.42;0.90;;;24.60;65.10;;;;;;5227111;28;20502;-53
2021/06/30 03:13:46;;;;;;;1.20;0.90;;;24.60;65.10;;;;;;5229424;27;20494;-55
2021/06/30 03:16:34;;;;;;;2.13;0.88;;;24.60;65.10;;;;;;5238143;27;20939;-57
2021/06/30 03:19:21;;;;;;;2.63;0.73;;;24.60;65.00;;;;;;5234546;27;20557;-58
2021/06/30 03:22:09;;;;;;;1.67;0.90;;;24.60;65.00;;;;;;5242722;27;20972;-52
2021/06/30 03:24:58;;;;;;;2.53;0.80;;;24.60;64.90;;;;;;5227484;27;20453;-56
2021/06/30 03:27:42;;;;;;;1.20;0.77;;;24.60;64.80;;;;;;5207602;28;20849;-56
2021/06/30 03:30:31;;;;;;;1.00;0.70;;;24.60;64.70;;;;;;5222771;28;20477;-54
2021/06/30 03:33:19;;;;;;;1.83;1.00;;;24.60;64.70;;;;;;5202063;28;20870;-54
2021/06/30 03:36:07;;;;;;;0.60;0.60;;;24.60;64.50;;;;;;5265131;27;20427;-58
2021/06/30 03:38:54;;;;;;;3.38;0.60;;;24.50;64.50;;;;;;5224046;28;20483;-54
2021/06/30 03:41:42;;;;;;;1.95;0.63;;;24.50;64.40;;;;;;5251595;27;20433;-54
2021/06/30 03:44:30;;;;;;;2.13;0.60;;;24.50;64.30;;;;;;5263160;27;20882;-57
2021/06/30 03:47:18;;;;;;;1.65;0.68;;;24.60;64.30;;;;;;5238675;27;20512;-55
2021/06/30 03:50:06;;;;;;;2.17;0.80;;;24.50;64.50;;;;;;5225000;27;20493;-56
2021/06/30 03:52:55;;;;;;;1.88;0.60;;;24.50;65.00;;;;;;5200309;28;20520;-57
2021/06/30 03:55:43;;;;;;;2.25;0.70;;;24.60;65.00;;;;;;5199660;28;20499;-57
2021/06/30 03:58:31;;;;;;;1.83;0.80;;;24.60;65.00;;;;;;5235949;27;20564;-56
2021/06/30 04:01:20;;;;;;;1.30;0.73;;;24.60;65.00;;;;;;5239184;27;20986;-54
2021/06/30 04:04:11;;;;;;;0.88;0.50;;;25.00;64.30;;;;;;5221452;28;20526;-57
2021/06/30 04:07:01;;;;;;;0.50;0.50;;;24.80;64.40;;;;;;5223851;28;20457;-57
2021/06/30 04:09:50;;;;;;;1.90;0.70;;;24.80;64.60;;;;;;5243519;27;20440;-56
2021/06/30 04:12:33;;;;;;;2.13;0.80;;;24.70;64.70;;;;;;5270306;27;20436;-57
2021/06/30 04:15:21;;;;;;;1.35;0.60;;;24.70;64.80;;;;;;5244298;27;20511;-57
2021/06/30 04:18:08;;;;;;;1.65;0.60;;;24.70;64.80;;;;;;5229386;27;20854;-58
2021/06/30 04:20:56;;;;;;;1.02;0.60;;;24.70;65.00;;;;;;5222893;28;20432;-54
2021/06/30 04:23:44;;;;;;;1.25;0.60;;;24.70;65.00;;;;;;5250244;27;20428;-57
2021/06/30 04:26:32;;;;;;;0.60;0.52;;;24.70;65.00;;;;;;5201531;28;20496;-55
2021/06/30 04:29:20;;;;;;;0.95;0.40;;;24.70;65.10;;;;;;5261012;27;20430;-56
2021/06/30 04:32:07;;;;;;;1.20;0.73;;;24.70;65.10;;;;;;5223802;27;20513;-57
2021/06/30 04:34:55;;;;;;;0.98;0.63;;;24.70;65.20;;;;;;5239551;28;20994;-53
2021/06/30 04:37:43;;;;;;;1.08;0.65;;;24.70;65.10;;;;;;5239532;27;20529;-56
2021/06/30 04:40:31;;;;;;;5.95;0.77;;;24.70;65.20;;;;;;5193611;27;20467;-56
2021/06/30 04:43:19;;;;;;;5.80;0.70;;;24.70;65.30;;;;;;5222810;28;20497;-56
2021/06/30 04:46:07;;;;;;;4.57;0.85;;;24.70;65.30;;;;;;5268158;27;20952;-57
2021/06/30 04:48:56;;;;;;;5.15;0.70;;;24.70;64.60;;;;;;5235404;27;20485;-54
2021/06/30 04:51:45;;;;;;;6.60;1.08;;;24.70;64.70;;;;;;5255348;27;20441;-57
2021/06/30 04:54:33;;;;;;;6.75;0.82;;;24.60;65.30;;;;;;5243110;27;20485;-57
2021/06/30 04:57:16;;;;;;;4.35;0.80;;;24.70;65.20;;;;;;5223950;27;20517;-56
2021/06/30 05:00:06;;;;;;;5.57;0.75;;;24.60;65.20;;;;;;5238473;27;21025;-56
2021/06/30 05:02:55;;;;;;;6.60;1.00;;;24.60;65.10;;;;;;5240797;27;21078;-57
2021/06/30 05:05:43;;;;;;;2.65;0.75;;;24.60;65.10;;;;;;5258362;27;20558;-54
2021/06/30 05:08:26;;;;;;;6.20;0.70;;;24.60;65.00;;;;;;5201508;28;20437;-54
2021/06/30 05:11:13;;;;;;;6.32;0.90;;;24.60;65.10;;;;;;5204896;28;20574;-57
2021/06/30 05:14:01;;;;;;;4.20;1.58;;;24.60;65.20;;;;;;5201671;28;20495;-55
2021/06/30 05:16:49;;;;;;;3.00;0.70;;;24.60;65.10;;;;;;5217953;28;20517;-57
2021/06/30 05:19:37;;;;;;;6.38;0.93;;;24.60;64.90;;;;;;5252774;27;20463;-57
2021/06/30 05:22:25;;;;;;;7.50;0.60;;;24.60;64.70;;;;;;5254721;27;20447;-55
2021/06/30 05:25:13;;;;;;;3.40;1.13;;;24.60;64.80;;;;;;5249507;28;21334;-55
2021/06/30 05:28:02;;;;;;;5.05;0.95;;;24.60;64.60;;;;;;5273995;27;20437;-56
2021/06/30 05:30:50;;;;;;;11.68;1.00;;;24.50;64.60;;;;;;5227062;27;21025;-58
2021/06/30 05:33:37;;;;;;;3.95;0.73;;;24.50;65.00;;;;;;5231719;27;21203;-54
2021/06/30 05:36:25;;;;;;;4.60;0.70;;;24.50;64.60;;;;;;5184793;28;20542;-55
2021/06/30 05:39:15;;;;;;;3.20;0.50;;;24.60;64.80;;;;;;5248501;27;22099;-54
2021/06/30 05:42:03;;;;;;;2.53;0.47;;;24.50;64.70;;;;;;5150569;28;20522;-58
2021/06/30 05:44:52;;;;;;;3.70;0.70;;;24.50;64.50;;;;;;5208368;28;20510;-56
2021/06/30 05:47:40;;;;;;;2.10;0.30;;;24.50;64.50;;;;;;5199893;28;21016;-54
2021/06/30 05:50:28;;;;;;;7.45;0.73;;;24.50;64.00;;;;;;5231242;27;20424;-57
2021/06/30 05:53:10;;;;;;;5.57;0.60;;;24.50;64.10;;;;;;5205943;27;20620;-56
2021/06/30 05:55:58;;;;;;;2.20;0.50;;;24.50;63.20;;;;;;5262429;27;20417;-54
2021/06/30 05:58:46;;;;;;;5.32;0.40;;;24.40;62.40;;;;;;5231033;27;20995;-55
2021/06/30 06:01:34;;;;;;;3.38;0.30;;;24.40;61.80;;;;;;5207942;28;20517;-56
2021/06/30 06:04:22;;;;;;;1.55;0.43;;;24.40;61.70;;;;;;5241266;27;20498;-57
2021/06/30 06:07:10;;;;;;;10.48;0.65;;;24.40;61.60;;;;;;5178721;28;20536;-57
2021/06/30 06:09:58;;;;;;;2.47;0.40;;;24.30;61.60;;;;;;5192524;27;20419;-56
2021/06/30 06:12:47;;;;;;;8.80;0.63;;;24.30;61.60;;;;;;5188752;27;20969;-58
2021/06/30 06:15:35;;;;;;;1.83;0.50;;;24.30;61.50;;;;;;5164307;28;20935;-55
2021/06/30 06:18:22;;;;;;;3.17;0.43;;;24.30;61.20;;;;;;5168002;27;20451;-57
2021/06/30 06:21:10;;;;;;;3.97;0.30;;;24.30;61.30;;;;;;5173114;27;20423;-54
2021/06/30 06:23:58;;;;;;;1.35;0.40;;;24.30;60.70;;;;;;5190219;28;20407;-55
2021/06/30 06:26:48;;;;;;;0.20;0.20;;;24.30;60.60;;;;;;5234100;27;21031;-55
2021/06/30 06:29:37;;;;;;;13.80;0.90;;;24.30;60.60;;;;;;5201048;28;20424;-57
2021/06/30 06:32:26;;;;;;;2.05;0.30;;;24.30;61.10;;;;;;5231717;27;20462;-58
2021/06/30 06:35:14;;;;;;;2.50;0.20;;;24.40;61.00;;;;;;5210572;28;21058;-56
2021/06/30 06:38:02;;;;;;;1.45;0.38;;;24.50;61.00;;;;;;5249835;27;20414;-56
2021/06/30 06:40:51;;;;;;;2.80;0.40;;;24.50;60.40;;;;;;5196921;28;20523;-55
2021/06/30 06:43:42;;;;;;;1.98;0.30;;;24.50;60.20;;;;;;5207888;27;20952;-58
2021/06/30 06:46:31;;;;;;;0.80;0.20;;;24.50;60.10;;;;;;5246496;27;21210;-56
2021/06/30 06:49:20;;;;;;;1.63;0.20;;;24.60;60.00;;;;;;5198630;27;20403;-57
2021/06/30 06:52:07;;;;;;;0.13;0.13;;;24.50;60.00;;;;;;5224186;27;20809;-57
2021/06/30 06:54:55;;;;;;;0.20;0.20;;;24.50;59.90;;;;;;5144079;28;20533;-58
2021/06/30 06:57:44;;;;;;;0.45;0.30;;;24.50;60.00;;;;;;5196462;28;20519;-55
2021/06/30 07:00:33;;;;;;;2.17;0.73;;;24.50;59.90;;;;;;5220204;27;20907;-57
2021/06/30 07:03:22;;;;;;;0.30;0.20;;;24.50;59.90;;;;;;5186699;27;20422;-54
2021/06/30 07:06:06;;;;;;;0.38;0.20;;;24.60;59.90;;;;;;5225954;27;20437;-57
2021/06/30 07:08:54;;;;;;;0.65;0.20;;;24.60;60.00;;;;;;5221394;27;20559;-56
2021/06/30 07:11:42;;;;;;;0.50;0.20;;;24.70;60.10;;;;;;5227346;27;20881;-57
2021/06/30 07:14:30;;;;;;;2.17;0.30;;;24.70;60.20;;;;;;5182485;28;21507;-56
2021/06/30 07:17:18;;;;;;;0.52;0.30;;;24.80;60.70;;;;;;5189079;28;20533;-54
2021/06/30 07:20:07;;;;;;;5.05;0.30;;;24.80;60.70;;;;;;5210588;27;20539;-57
2021/06/30 07:22:55;;;;;;;2.05;0.25;;;24.80;60.80;;;;;;5189935;27;20913;-57
2021/06/30 07:25:43;;;;;;;3.38;0.30;;;24.80;60.60;;;;;;5244421;27;20507;-59
2021/06/30 07:28:31;;;;;;;1.67;0.28;;;24.80;60.50;;;;;;5242930;27;20411;-55
2021/06/30 07:31:22;;;;;;;6.20;0.40;;;24.80;60.40;;;;;;5201016;28;20410;-56
2021/06/30 07:34:09;;;;;;;5.97;0.40;;;24.80;60.10;;;;;;5169025;28;20408;-57
2021/06/30 07:36:58;;;;;;;1.08;0.30;;;24.80;59.80;;;;;;5183096;28;20514;-57
2021/06/30 07:39:46;;;;;;;2.22;0.20;;;24.80;59.60;;;;;;5212556;27;20408;-57
2021/06/30 07:42:34;;;;;;;3.10;0.25;;;24.80;59.20;;;;;;5208275;28;20445;-57
2021/06/30 07:45:23;;;;;;;0.65;0.52;;;24.90;59.00;;;;;;5207351;28;20414;-56
2021/06/30 07:48:06;;;;;;;1.88;0.40;;;24.80;58.90;;;;;;5227884;27;20472;-57
2021/06/30 07:50:50;;;;;;;0.93;0.40;;;24.80;58.90;;;;;;5195761;28;20845;-53
2021/06/30 07:53:33;;;;;;;2.08;0.30;;;24.80;59.00;;;;;;5210183;27;20851;-57
2021/06/30 07:56:16;;;;;;;0.65;0.20;;;24.80;59.10;;;;;;5232692;27;20413;-56
2021/06/30 07:59:01;;;;;;;0.65;0.30;;;24.80;59.30;;;;;;5188589;28;20414;-53
2021/06/30 08:01:45;;;;;;;4.68;0.30;;;24.80;59.60;;;;;;5224409;27;20409;-57
2021/06/30 08:04:28;;;;;;;1.90;0.20;;;24.90;59.80;;;;;;5209923;27;20420;-58
2021/06/30 08:07:11;;;;;;;0.20;0.20;;;24.90;59.80;;;;;;5167074;28;20445;-58
2021/06/30 08:09:54;;;;;;;0.65;0.30;;;24.90;59.60;;;;;;5208428;27;20417;-58
2021/06/30 08:12:37;;;;;;;2.63;0.68;;;24.90;59.60;;;;;;5184129;28;20473;-57
2021/06/30 08:15:20;;;;;;;0.47;0.20;;;24.90;59.50;;;;;;5221537;27;21825;-57
2021/06/30 08:18:03;;;;;;;0.50;0.30;;;25.00;59.40;;;;;;5228515;27;20409;-57
2021/06/30 08:20:50;;;;;;;2.20;0.28;;;25.00;58.90;;;;;;5250743;27;20445;-58
2021/06/30 08:23:34;;;;;;;2.10;0.20;;;25.00;58.40;;;;;;5227038;27;20508;-58
2021/06/30 08:26:17;;;;;;;1.48;0.40;;;25.00;57.80;;;;;;5219364;28;20507;-57
2021/06/30 08:29:00;;;;;;;6.13;1.13;;;25.00;57.40;;;;;;5235859;27;20404;-55
2021/06/30 08:31:43;;;;;;;5.82;0.47;;;25.00;56.80;;;;;;5226720;27;20849;-55
2021/06/30 08:34:28;;;;;;;0.30;0.30;;;25.00;56.50;;;;;;5200855;27;20516;-56
2021/06/30 08:37:13;;;;;;;1.80;0.40;;;25.00;56.20;;;;;;5228077;27;20401;-58
2021/06/30 08:39:57;;;;;;;0.85;0.20;;;25.00;56.00;;;;;;5227007;27;20403;-57
2021/06/30 08:42:30;;;;;;;0.20;0.20;;;25.00;56.10;;;;;;5211316;28;20048;-56
2021/06/30 08:45:14;;;;;;;0.85;0.30;;;25.00;56.10;;;;;;5215171;27;20529;-53
2021/06/30 08:47:58;;;;;;;4.95;0.50;;;25.00;56.80;;;;;;5196858;28;20503;-56
2021/06/30 08:50:42;;;;;;;0.75;0.20;;;25.00;56.20;;;;;;5237449;27;20444;-57
2021/06/30 08:53:26;;;;;;;1.75;0.30;;;24.90;56.20;;;;;;5233949;27;20469;-56
2021/06/30 08:56:09;;;;;;;1.75;0.20;;;25.00;55.60;;;;;;5223090;27;20794;-57
2021/06/30 08:58:53;;;;;;;0.52;0.22;;;25.00;55.40;;;;;;5242099;27;20418;-57
2021/06/30 09:01:36;;;;;;;2.67;0.50;;;24.90;55.60;;;;;;5179088;28;20790;-53
2021/06/30 09:04:19;;;;;;;1.00;0.20;;;25.00;55.80;;;;;;5213211;27;20410;-58
2021/06/30 09:07:03;;;;;;;0.20;0.20;;;25.00;55.90;;;;;;5193950;28;20408;-58
2021/06/30 09:09:45;;;;;;;0.52;0.20;;;25.00;56.00;;;;;;5181958;28;20921;-58
2021/06/30 09:12:40;;;;;;;1.10;0.20;;;25.00;55.90;;;;;;5193270;27;20419;-57
2021/06/30 09:15:34;;;;;;;2.67;0.20;;;25.00;56.10;;;;;;5211479;28;20444;-57
2021/06/30 09:18:28;;;;;;;3.88;0.30;;;25.10;56.20;;;;;;5184704;28;20540;-56
2021/06/30 09:21:18;;;;;;;1.70;0.30;;;25.10;56.10;;;;;;5222233;28;21019;-56
2021/06/30 09:24:05;;;;;;;1.95;0.32;;;25.10;55.60;;;;;;5240390;27;20524;-53
2021/06/30 09:26:51;;;;;;;0.50;0.20;;;25.10;55.60;;;;;;5240133;27;20504;-56
2021/06/30 09:29:35;;;;;;;0.20;0.20;;;25.00;55.70;;;;;;5204091;27;20478;-54
2021/06/30 09:32:19;;;;;;;1.50;0.30;;;25.10;55.90;;;;;;5241235;27;20500;-56
2021/06/30 09:35:22;;;;;;;2.50;0.40;;;25.00;55.80;;;;;;5198969;28;21041;-56
2021/06/30 09:38:26;;;;;;;1.53;0.40;;;25.10;55.60;;;;;;5208182;27;1215652;-54
2021/06/30 09:41:18;;;;;;;1.17;0.30;;;25.10;55.40;;;;;;5223683;28;21022;-58
2021/06/30 09:44:12;;;;;;;0.35;0.30;;;25.10;55.40;;;;;;5225366;28;20534;-57
2021/06/30 09:46:55;;;;;;;1.50;0.30;;;25.20;55.50;;;;;;5237646;27;20500;-57
2021/06/30 09:49:38;;;;;;;2.10;0.38;;;25.20;55.50;;;;;;5188472;28;20540;-54
2021/06/30 09:52:22;;;;;;;0.40;0.30;;;25.20;55.50;;;;;;5229836;28;20501;-55
2021/06/30 09:55:31;;;;;;;4.28;0.30;;;25.20;55.40;;;;;;5250306;27;20504;-55
2021/06/30 09:58:31;;;;;;;0.63;0.30;;;25.20;55.30;;;;;;5227123;27;20567;-55
2021/06/30 10:01:19;;;;;;;1.20;0.30;;;25.20;55.30;;;;;;5202802;28;21005;-55
2021/06/30 10:04:03;;;;;;;3.58;0.55;;;25.30;55.60;;;;;;5229807;27;21112;-57
2021/06/30 10:06:47;;;;;;;0.82;0.30;;;25.20;55.40;;;;;;5175382;28;20505;-56
2021/06/30 10:09:31;;;;;;;1.98;0.32;;;25.30;55.30;;;;;;5183846;28;20422;-55
2021/06/30 10:12:18;;;;;;;2.47;0.68;;;25.30;55.10;;;;;;5209925;28;21115;-56
2021/06/30 10:15:05;;;;;;;3.00;0.40;;;25.30;55.30;;;;;;5307959;27;20482;-58
2021/06/30 10:17:48;;;;;;;0.80;0.50;;;25.30;55.50;;;;;;5212528;27;20502;-57
2021/06/30 10:20:32;;;;;;;2.67;0.30;;;25.30;55.60;;;;;;5201966;27;20417;-54
2021/06/30 10:23:15;;;;;;;0.50;0.40;;;25.30;55.70;;;;;;5201870;28;20517;-58
2021/06/30 10:25:59;;;;;;;0.50;0.40;;;25.40;56.30;;;;;;5183228;27;21054;-52
2021/06/30 10:28:43;;;;;;;4.43;0.50;;;25.40;55.90;;;;;;5226804;28;20521;-55
2021/06/30 10:31:34;;;;;;;2.25;0.70;;;25.40;55.60;;;;;;5220899;28;20994;-55
2021/06/30 10:34:18;;;;;;;5.50;1.02;;;25.40;54.80;;;;;;5199558;28;20993;-57
2021/06/30 10:37:24;;;;;;;3.10;1.20;;;25.40;54.30;;;;;;5235286;27;20502;-56
2021/06/30 10:40:10;;;;;;;1.67;1.27;;;25.40;53.70;;;;;;5184373;28;20399;-56
2021/06/30 10:43:14;;;;;;;1.60;1.00;;;25.40;53.40;;;;;;5290423;27;21004;-56
2021/06/30 10:46:24;;;;;;;1.20;0.68;;;25.30;53.30;;;;;;5225787;27;20919;-56
2021/06/30 10:49:33;;;;;;;1.60;0.60;;;25.30;53.30;;;;;;5212006;28;21011;-58
2021/06/30 10:52:24;;;;;;;1.27;0.55;;;25.30;52.70;;;;;;5232327;27;20535;-55
2021/06/30 10:55:35;;;;;;;3.17;0.60;;;25.30;52.50;;;;;;5199841;28;20782;-57
2021/06/30 10:58:24;;;;;;;3.30;0.65;;;25.20;52.50;;;;;;5205456;28;20432;-55
2021/06/30 11:01:12;;;;;;;2.33;0.50;;;25.20;52.70;;;;;;5243090;27;20412;-57
2021/06/30 11:04:01;;;;;;;0.57;0.40;;;25.20;52.80;;;;;;5246390;27;21883;-56
2021/06/30 11:06:44;;;;;;;1.52;1.20;;;25.20;53.10;;;;;;5215664;27;20414;-58
2021/06/30 11:09:27;;;;;;;4.03;2.78;;;25.20;53.00;;;;;;5222243;27;20494;-58
2021/06/30 11:12:11;;;;;;;8.13;4.90;;;25.20;53.10;;;;;;5213768;27;20889;-57
2021/06/30 11:14:55;;;;;;;11.43;9.90;;;25.20;53.20;;;;;;5201746;27;20530;-55
2021/06/30 11:17:38;;;;;;;10.18;7.65;;;25.20;53.20;;;;;;5193076;28;20518;-57
2021/06/30 11:20:44;;;;;;;11.05;7.88;;;25.20;53.40;;;;;;5226889;27;20495;-58
2021/06/30 11:23:29;;;;;;;10.15;8.90;;;25.10;53.60;;;;;;5194472;28;20442;-58
2021/06/30 11:26:34;;;;;;;13.00;7.70;;;25.20;53.90;;;;;;5241354;27;21110;-56
2021/06/30 11:30:01;;;;;;;11.93;8.77;;;25.20;54.20;;;;;;5194853;27;21336;-57
2021/06/30 11:32:45;;;;;;;15.63;10.98;;;25.10;54.30;;;;;;5159063;28;20875;-58
2021/06/30 11:35:32;;;;;;;14.35;7.50;;;25.20;54.70;;;;;;5188595;28;21157;-57
2021/06/30 11:38:20;;;;;;;7.03;4.53;;;25.20;54.60;;;;;;5222420;27;20481;-57
2021/06/30 11:41:13;;;;;;;4.10;2.67;;;25.20;54.20;;;;;;5199512;28;20487;-57
2021/06/30 11:43:57;;;;;;;1.65;1.35;;;25.20;53.90;;;;;;5238849;27;21013;-55
2021/06/30 11:47:04;;;;;;;2.35;1.58;;;25.20;53.40;;;;;;5207450;27;20401;-55
2021/06/30 11:49:48;;;;;;;3.25;1.60;;;25.20;53.50;;;;;;5209508;27;20570;-56
2021/06/30 11:52:32;;;;;;;4.82;1.63;;;25.20;53.70;;;;;;5272916;27;20387;-54
2021/06/30 11:55:15;;;;;;;3.93;1.37;;;25.20;53.90;;;;;;5226865;27;1218621;-54
2021/06/30 11:58:01;;;;;;;2.50;1.15;;;25.20;54.00;;;;;;5200332;28;20999;-56
2021/06/30 12:00:44;;;;;;;15.57;2.10;;;25.20;53.90;;;;;;5256215;27;20405;-57
2021/06/30 12:03:28;;;;;;;4.60;1.58;;;25.20;54.50;;;;;;5244526;27;21862;-55
2021/06/30 12:06:27;;;;;;;3.20;1.30;;;25.20;54.60;;;;;;5229259;27;20527;-58
2021/06/30 12:09:19;;;;;;;4.80;1.63;;;25.30;55.20;;;;;;5245128;27;20873;-57
2021/06/30 12:12:11;;;;;;;5.70;1.40;;;25.30;55.30;;;;;;5240553;27;21620;-56
2021/06/30 12:14:55;;;;;;;2.25;1.55;;;25.30;55.50;;;;;;5223868;27;20200;-58
2021/06/30 12:17:45;;;;;;;3.92;1.30;;;25.30;55.60;;;;;;5104231;28;20433;-53
2021/06/30 12:20:29;;;;;;;5.72;1.30;;;25.40;55.90;;;;;;5243982;27;21051;-57
2021/06/30 12:23:18;;;;;;;7.72;1.35;;;25.40;56.00;;;;;;5221952;28;20996;-54
2021/06/30 12:26:05;;;;;;;4.82;1.55;;;25.40;56.00;;;;;;5189621;28;20433;-55
2021/06/30 12:28:48;;;;;;;6.45;1.30;;;25.40;56.10;;;;;;5207397;28;20505;-55
2021/06/30 12:31:31;;;;;;;6.82;1.10;;;25.40;56.30;;;;;;5225274;28;20980;-56
2021/06/30 12:34:14;;;;;;;2.90;1.20;;;25.40;56.40;;;;;;5181157;28;20949;-54
2021/06/30 12:36:58;;;;;;;3.15;1.23;;;25.40;57.20;;;;;;5195535;28;20503;-57
2021/06/30 12:39:41;;;;;;;4.90;1.20;;;25.40;56.60;;;;;;5180431;28;20516;-57
2021/06/30 12:43:01;;;;;;;9.20;1.23;;;25.50;56.80;;;;;;5178805;28;20412;-57
2021/06/30 12:45:53;;;;;;;5.45;1.33;;;25.50;56.90;;;;;;5217100;27;20412;-57
2021/06/30 12:48:37;;;;;;;5.60;1.50;;;25.50;56.90;;;;;;5214543;28;21549;-57
2021/06/30 12:51:24;;;;;;;5.55;1.50;;;25.50;56.90;;;;;;5213327;27;20413;-56
2021/06/30 12:54:07;;;;;;;4.28;1.23;;;25.50;57.00;;;;;;5253997;27;21121;-56
2021/06/30 12:57:06;;;;;;;9.77;1.45;;;25.50;57.10;;;;;;5215071;27;21026;-54
2021/06/30 13:00:16;;;;;;;9.10;1.00;;;25.50;57.10;;;;;;5219505;27;20547;-57
2021/06/30 13:03:09;;;;;;;4.97;1.42;;;25.50;57.20;;;;;;5263293;27;20450;-57
2021/06/30 13:06:13;;;;;;;3.20;1.20;;;25.60;57.40;;;;;;5193204;28;21102;-55
2021/06/30 13:09:09;;;;;;;10.98;1.50;;;25.50;57.30;;;;;;5199701;28;20298;-56
2021/06/30 13:11:57;;;;;;;3.95;1.30;;;25.60;57.50;;;;;;5260284;27;21379;-56
2021/06/30 13:14:43;;;;;;;2.58;1.00;;;25.60;57.60;;;;;;5194288;28;20541;-58
2021/06/30 13:17:27;;;;;;;3.30;0.95;;;25.60;56.90;;;;;;5256412;27;21395;-57
2021/06/30 13:20:14;;;;;;;5.03;1.40;;;25.50;56.50;;;;;;5220610;27;20491;-56
2021/06/30 13:22:58;;;;;;;4.20;1.30;;;25.50;56.20;;;;;;5122652;28;20463;-58
2021/06/30 13:25:51;;;;;;;4.60;1.10;;;25.50;56.70;;;;;;5172589;28;20420;-58
2021/06/30 13:28:54;;;;;;;6.00;1.05;;;25.50;56.80;;;;;;5247359;27;20574;-57
2021/06/30 13:34:40;;;;;;;5.90;1.13;;;25.50;57.20;;;;;;5238631;27;20498;-57
2021/06/30 13:37:23;;;;;;;5.70;1.00;;;25.50;57.30;;;;;;5178172;27;20542;-58
2021/06/30 13:40:06;;;;;;;4.70;1.30;;;25.50;57.30;;;;;;5204641;27;20435;-57
2021/06/30 13:42:51;;;;;;;11.55;1.30;;;25.50;57.40;;;;;;5266350;27;22026;-57
2021/06/30 13:45:49;;;;;;;9.07;1.02;;;25.50;57.20;;;;;;5180974;28;20404;-57
2021/06/30 13:48:32;;;;;;;8.15;1.25;;;25.50;57.20;;;;;;5226164;27;20412;-57
2021/06/30 13:51:18;;;;;;;4.40;0.90;;;25.50;57.10;;;;;;5189646;28;20446;-57
2021/06/30 13:54:02;;;;;;;3.83;0.88;;;25.50;57.10;;;;;;5297117;27;20488;-57
2021/06/30 13:56:45;;;;;;;7.47;1.02;;;25.40;57.10;;;;;;5238865;27;20669;-56
2021/06/30 13:59:28;;;;;;;3.83;1.40;;;25.40;57.10;;;;;;5228099;27;20430;-57
2021/06/30 14:02:11;;;;;;;3.72;1.17;;;25.40;57.20;;;;;;5249484;27;20508;-55
2021/06/30 14:04:54;;;;;;;13.65;1.30;;;25.50;57.30;;;;;;5236287;27;20739;-55
2021/06/30 14:07:37;;;;;;;4.25;1.00;;;25.40;57.50;;;;;;5260729;27;21082;-54
2021/06/30 14:10:20;;;;;;;7.75;1.05;;;25.40;57.30;;;;;;5281363;27;20532;-56
2021/06/30 14:13:04;;;;;;;5.13;0.93;;;25.40;57.40;;;;;;5249901;27;20408;-57
2021/06/30 14:15:48;;;;;;;6.88;0.80;;;25.50;57.50;;;;;;5239248;27;20439;-57
2021/06/30 14:18:33;;;;;;;11.73;1.10;;;25.50;57.40;;;;;;5221494;27;20548;-57
2021/06/30 14:21:17;;;;;;;4.65;1.05;;;25.60;57.40;;;;;;5258381;27;20437;-56
2021/06/30 14:24:00;;;;;;;4.32;0.80;;;25.60;57.60;;;;;;5251077;27;20490;-57
2021/06/30 14:26:43;;;;;;;8.45;1.08;;;25.60;57.70;;;;;;5214593;28;20545;-57
2021/06/30 14:29:27;;;;;;;6.47;1.50;;;25.60;57.70;;;;;;5200962;28;20575;-56
2021/06/30 14:32:12;;;;;;;12.50;1.38;;;25.60;57.80;;;;;;5238436;27;20558;-58
2021/06/30 14:34:56;;;;;;;13.05;1.88;;;25.70;57.90;;;;;;5245155;27;20488;-57
2021/06/30 14:37:40;;;;;;;11.40;1.63;;;25.70;57.70;;;;;;5229204;28;20534;-59